Time;durP1;ratioP1;P1;durP2;ratioP2;P2;SDS_P1;SDS_P2;PMS_P1;PMS_P2;Temp;Humidity;BMP_temperature;BMP_pressure;BME280_temperature;BME280_humidity;BME280_pressure;Samples;Min_cycle;Max_cycle;Signal;HPM_P1;HPM_P2
2023/08/09 00:00:34;;;;;;;9.48;2.22;;;12.60;99.90;;;;;;5107415;28;20043;-79
2023/08/09 00:03:01;;;;;;;8.40;1.98;;;12.60;99.90;;;;;;5103828;28;20071;-80
2023/08/09 00:05:27;;;;;;;7.47;3.15;;;12.60;99.90;;;;;;5107410;28;20048;-79
2023/08/09 00:07:53;;;;;;;4.22;1.70;;;12.50;99.90;;;;;;5101238;28;20044;-78
2023/08/09 00:10:19;;;;;;;4.93;1.77;;;12.60;99.90;;;;;;5112744;28;20040;-79
2023/08/09 00:12:44;;;;;;;9.23;1.92;;;12.60;99.90;;;;;;5128840;28;20039;-79
2023/08/09 00:15:10;;;;;;;3.97;1.58;;;12.60;99.90;;;;;;5125001;28;20054;-80
2023/08/09 00:17:36;;;;;;;10.55;3.05;;;12.50;99.90;;;;;;5117460;28;20043;-79
2023/08/09 00:20:02;;;;;;;4.68;1.70;;;12.50;99.90;;;;;;5099119;28;20044;-79
2023/08/09 00:22:28;;;;;;;3.92;1.80;;;12.40;99.90;;;;;;5082361;28;20048;-80
2023/08/09 00:24:53;;;;;;;4.55;1.90;;;12.40;99.90;;;;;;5105110;28;20461;-80
2023/08/09 00:27:19;;;;;;;4.55;1.80;;;12.40;99.90;;;;;;5104509;28;20039;-79
2023/08/09 00:29:45;;;;;;;9.95;2.47;;;12.40;99.90;;;;;;5104295;28;20036;-79
2023/08/09 00:32:10;;;;;;;4.93;2.05;;;12.40;99.90;;;;;;5122246;28;20055;-79
2023/08/09 00:34:36;;;;;;;4.32;1.88;;;12.40;99.90;;;;;;5124082;28;20049;-79
2023/08/09 00:37:02;;;;;;;7.97;1.88;;;12.40;99.90;;;;;;5111896;28;20039;-80
2023/08/09 00:39:28;;;;;;;11.40;2.10;;;12.30;99.90;;;;;;5116650;28;20043;-79
2023/08/09 00:41:53;;;;;;;4.00;1.70;;;12.30;99.90;;;;;;5120573;28;20039;-80
2023/08/09 00:44:19;;;;;;;6.65;1.90;;;12.30;99.90;;;;;;5119153;28;20044;-81
2023/08/09 00:46:45;;;;;;;10.65;2.45;;;12.30;99.90;;;;;;5098950;28;20047;-80
2023/08/09 00:49:11;;;;;;;6.70;2.33;;;12.30;99.90;;;;;;5117108;28;20481;-79
2023/08/09 00:51:37;;;;;;;8.15;1.88;;;12.30;99.90;;;;;;5116174;28;20035;-80
2023/08/09 00:54:03;;;;;;;6.35;2.00;;;12.30;99.90;;;;;;5112389;28;20059;-80
2023/08/09 00:56:29;;;;;;;7.43;1.95;;;12.30;99.90;;;;;;5102415;28;20461;-80
2023/08/09 00:58:55;;;;;;;8.07;1.70;;;12.20;99.90;;;;;;5107489;28;20040;-80
2023/08/09 01:01:22;;;;;;;7.35;1.70;;;12.20;99.90;;;;;;5097958;28;20079;-78
2023/08/09 01:03:47;;;;;;;4.57;1.98;;;12.20;99.90;;;;;;5101981;28;20047;-80
2023/08/09 01:06:37;;;;;;;9.77;2.00;;;12.20;99.90;;;;;;5101872;28;20481;-80
2023/08/09 01:09:15;;;;;;;8.55;2.55;;;12.20;99.90;;;;;;5120718;28;20047;-82
2023/08/09 01:11:48;;;;;;;;;;;12.20;99.90;;;;;;5097557;28;20139;-80
2023/08/09 01:14:17;;;;;;;10.10;1.90;;;12.10;99.90;;;;;;5116429;28;19919;-80
2023/08/09 01:16:45;;;;;;;5.22;1.70;;;12.10;99.90;;;;;;5118446;28;20047;-80
2023/08/09 01:19:40;;;;;;;5.88;1.77;;;12.10;99.90;;;;;;5112401;28;20401;-80
2023/08/09 01:22:20;;;;;;;6.55;2.13;;;12.10;99.90;;;;;;5099215;28;20040;-80
2023/08/09 01:24:46;;;;;;;8.70;1.73;;;12.10;99.90;;;;;;5117578;28;20116;-80
2023/08/09 01:27:12;;;;;;;4.60;1.60;;;12.00;99.90;;;;;;5111195;28;20497;-80
2023/08/09 01:29:39;;;;;;;4.18;1.77;;;12.00;99.90;;;;;;5120912;28;20458;-78
2023/08/09 01:32:05;;;;;;;5.35;1.65;;;12.00;99.90;;;;;;5116911;28;20044;-79
2023/08/09 01:34:31;;;;;;;8.10;1.70;;;12.00;99.90;;;;;;5117211;28;20393;-80
2023/08/09 01:37:01;;;;;;;4.70;1.80;;;12.00;99.90;;;;;;5131243;28;20020;-81
2023/08/09 01:39:30;;;;;;;5.20;1.80;;;12.00;99.90;;;;;;5126293;28;20043;-79
2023/08/09 01:41:59;;;;;;;10.20;2.53;;;12.00;99.90;;;;;;5102710;28;20044;-80
2023/08/09 01:44:25;;;;;;;;;;;11.90;99.90;;;;;;5100390;28;20051;-78
2023/08/09 01:46:51;;;;;;;3.72;1.70;;;11.90;99.90;;;;;;5097113;28;19975;-80
2023/08/09 01:49:21;;;;;;;4.70;1.63;;;11.90;99.90;;;;;;5099346;28;20044;-79
2023/08/09 01:51:47;;;;;;;7.05;1.70;;;11.80;99.90;;;;;;5116284;28;20453;-78
2023/08/09 01:54:14;;;;;;;5.60;1.80;;;11.90;99.90;;;;;;5123249;28;20087;-79
2023/08/09 01:56:41;;;;;;;3.78;1.70;;;11.90;99.90;;;;;;5101980;28;20050;-80
2023/08/09 01:59:08;;;;;;;5.68;1.75;;;11.80;99.90;;;;;;5105758;28;20481;-79
2023/08/09 02:01:36;;;;;;;6.50;1.67;;;11.80;99.90;;;;;;5124444;28;20043;-80
2023/08/09 02:04:03;;;;;;;4.97;1.60;;;11.80;99.90;;;;;;5123190;28;20073;-79
2023/08/09 02:06:32;;;;;;;5.00;1.53;;;11.80;99.90;;;;;;5110484;28;20169;-80
2023/08/09 02:08:58;;;;;;;7.75;1.70;;;11.80;99.90;;;;;;5099261;28;20278;-80
2023/08/09 02:11:24;;;;;;;6.80;2.47;;;11.80;99.90;;;;;;5113639;28;20050;-80
2023/08/09 02:13:49;;;;;;;8.13;2.33;;;11.80;99.90;;;;;;5115149;28;20478;-80
2023/08/09 02:16:15;;;;;;;8.57;2.10;;;11.70;99.90;;;;;;5098870;28;20040;-80
2023/08/09 02:18:42;;;;;;;3.22;1.58;;;11.70;99.90;;;;;;5113956;28;20050;-79
2023/08/09 02:21:07;;;;;;;6.65;1.80;;;11.70;99.90;;;;;;5117498;28;20167;-79
2023/08/09 02:23:34;;;;;;;5.60;1.85;;;11.70;99.90;;;;;;5122768;28;20072;-80
2023/08/09 02:26:00;;;;;;;7.60;1.80;;;11.80;99.90;;;;;;5115869;28;20048;-79
2023/08/09 02:28:25;;;;;;;3.90;1.88;;;11.80;99.90;;;;;;5126166;28;20134;-79
2023/08/09 02:30:53;;;;;;;7.40;1.70;;;11.80;99.90;;;;;;5105014;28;20055;-80
2023/08/09 02:33:19;;;;;;;5.17;1.97;;;11.80;99.90;;;;;;5109288;28;20053;-80
2023/08/09 02:35:59;;;;;;;10.23;2.15;;;11.70;99.90;;;;;;5109492;28;20035;-80
2023/08/09 02:38:26;;;;;;;3.03;1.50;;;11.80;99.90;;;;;;5109852;28;20040;-79
2023/08/09 02:40:52;;;;;;;7.22;1.75;;;11.70;99.90;;;;;;5110330;28;20094;-79
2023/08/09 02:43:25;;;;;;;7.80;2.58;;;11.70;99.90;;;;;;5110498;28;20044;-79
2023/08/09 02:45:52;;;;;;;5.30;1.92;;;11.70;99.90;;;;;;5111283;28;20051;-80
2023/08/09 02:48:19;;;;;;;8.52;2.08;;;11.70;99.90;;;;;;5122078;28;20071;-78
2023/08/09 02:50:45;;;;;;;7.95;1.95;;;11.70;99.90;;;;;;5110002;28;20066;-80
2023/08/09 02:53:11;;;;;;;6.40;1.60;;;11.70;99.90;;;;;;5104733;28;20044;-80
2023/08/09 02:55:36;;;;;;;4.75;2.03;;;11.70;99.90;;;;;;5104604;28;20082;-80
2023/08/09 02:58:04;;;;;;;6.20;2.00;;;11.70;99.90;;;;;;5107867;28;20040;-80
2023/08/09 03:00:33;;;;;;;6.05;2.00;;;11.60;99.90;;;;;;5108015;28;20059;-79
2023/08/09 03:03:00;;;;;;;6.10;2.05;;;11.60;99.90;;;;;;5108503;28;20481;-79
2023/08/09 03:05:30;;;;;;;4.75;1.52;;;11.70;99.90;;;;;;5109176;28;20044;-79
2023/08/09 03:07:56;;;;;;;7.38;1.98;;;11.70;99.90;;;;;;5104600;28;20043;-79
2023/08/09 03:10:23;;;;;;;5.50;1.80;;;11.70;99.90;;;;;;5104905;28;20065;-79
2023/08/09 03:12:49;;;;;;;6.43;2.20;;;11.60;99.90;;;;;;5088161;28;20047;-79
2023/08/09 03:15:16;;;;;;;6.03;1.70;;;11.60;99.90;;;;;;5107937;28;20040;-79
2023/08/09 03:17:42;;;;;;;7.68;2.47;;;11.70;99.90;;;;;;5106569;28;20055;-79
2023/08/09 03:20:15;;;;;;;3.88;1.70;;;11.60;99.90;;;;;;5106487;28;20036;-80
2023/08/09 03:22:45;;;;;;;6.55;2.00;;;11.60;99.90;;;;;;5126640;28;20056;-80
2023/08/09 03:25:12;;;;;;;4.03;1.60;;;11.60;99.90;;;;;;5125141;28;20039;-80
2023/08/09 03:27:38;;;;;;;4.63;1.60;;;11.60;99.90;;;;;;5125403;28;20051;-80
2023/08/09 03:30:06;;;;;;;6.15;1.83;;;11.60;99.90;;;;;;5131608;28;20311;-79
2023/08/09 03:32:31;;;;;;;4.20;2.10;;;11.60;99.90;;;;;;5129565;28;20123;-79
2023/08/09 03:34:57;;;;;;;6.05;1.88;;;11.50;99.90;;;;;;5123553;28;20040;-78
2023/08/09 03:37:23;;;;;;;4.82;2.03;;;11.50;99.90;;;;;;5103240;28;20040;-79
2023/08/09 03:39:48;;;;;;;11.02;2.25;;;11.50;99.90;;;;;;5108068;28;20079;-80
2023/08/09 03:42:14;;;;;;;7.20;2.13;;;11.50;99.90;;;;;;5117954;28;20063;-79
2023/08/09 03:44:40;;;;;;;8.15;2.00;;;11.50;99.90;;;;;;5124183;28;20055;-79
2023/08/09 03:47:06;;;;;;;7.22;1.63;;;11.50;99.90;;;;;;5116480;28;20501;-79
2023/08/09 03:49:32;;;;;;;6.85;1.80;;;11.50;99.90;;;;;;5102183;28;20207;-79
2023/08/09 03:51:57;;;;;;;8.77;2.00;;;11.50;99.90;;;;;;5112068;28;20036;-79
2023/08/09 03:54:23;;;;;;;4.15;1.77;;;11.40;99.90;;;;;;5120173;28;20046;-78
2023/08/09 03:56:48;;;;;;;7.13;1.77;;;11.50;99.90;;;;;;5108683;28;20063;-80
2023/08/09 03:59:14;;;;;;;9.05;1.90;;;11.50;99.90;;;;;;5120165;28;20067;-80
2023/08/09 04:01:40;;;;;;;5.45;1.75;;;11.50;99.90;;;;;;5120304;28;20051;-80
2023/08/09 04:04:07;;;;;;;5.07;1.85;;;11.50;99.90;;;;;;5122820;28;20047;-80
2023/08/09 04:06:32;;;;;;;8.27;1.73;;;11.50;99.90;;;;;;5106005;28;20047;-79
2023/08/09 04:08:58;;;;;;;9.00;2.63;;;11.50;99.90;;;;;;5119575;28;20418;-80
2023/08/09 04:11:24;;;;;;;7.63;2.65;;;11.50;99.90;;;;;;5123973;28;20470;-80
2023/08/09 04:13:53;;;;;;;4.65;1.70;;;11.50;99.90;;;;;;5122169;27;20458;-79
2023/08/09 04:16:18;;;;;;;6.78;1.77;;;11.50;99.90;;;;;;5120416;28;20119;-79
2023/08/09 04:18:44;;;;;;;5.22;2.17;;;11.40;99.90;;;;;;5122343;28;20055;-79
2023/08/09 04:21:10;;;;;;;4.90;1.85;;;11.40;99.90;;;;;;5120612;28;20035;-78
2023/08/09 04:23:36;;;;;;;8.35;2.05;;;11.40;99.90;;;;;;5119167;28;20056;-78
2023/08/09 04:26:03;;;;;;;6.30;2.17;;;11.40;99.90;;;;;;5119180;28;20379;-78
2023/08/09 04:28:29;;;;;;;9.75;2.05;;;11.40;99.90;;;;;;5116501;28;20047;-78
2023/08/09 04:30:55;;;;;;;4.43;1.80;;;11.40;99.90;;;;;;5112998;28;20036;-79
2023/08/09 04:33:22;;;;;;;5.65;2.20;;;11.40;99.90;;;;;;5097109;28;20055;-79
2023/08/09 04:35:48;;;;;;;6.30;2.25;;;11.40;99.90;;;;;;5101177;28;20047;-78
2023/08/09 04:38:14;;;;;;;5.60;1.90;;;11.40;99.90;;;;;;5117515;28;20051;-78
2023/08/09 04:40:40;;;;;;;7.47;2.08;;;11.40;99.90;;;;;;5099860;28;20470;-79
2023/08/09 04:43:05;;;;;;;4.50;1.83;;;11.40;99.90;;;;;;5115309;28;20039;-78
2023/08/09 04:45:32;;;;;;;5.90;1.90;;;11.40;99.90;;;;;;5095187;28;20093;-79
2023/08/09 04:47:58;;;;;;;5.88;2.10;;;11.40;99.90;;;;;;5112495;28;20032;-78
2023/08/09 04:50:24;;;;;;;3.97;1.80;;;11.50;99.90;;;;;;5117112;28;20040;-78
2023/08/09 04:52:50;;;;;;;5.07;1.80;;;11.50;99.90;;;;;;5099094;28;20036;-78
2023/08/09 04:55:16;;;;;;;5.40;2.42;;;11.50;99.90;;;;;;5097169;28;20036;-78
2023/08/09 04:57:42;;;;;;;9.95;2.50;;;11.50;99.90;;;;;;5119312;28;20039;-79
2023/08/09 05:00:13;;;;;;;4.85;1.80;;;11.60;99.90;;;;;;5095146;28;20070;-79
2023/08/09 05:02:39;;;;;;;5.93;2.10;;;11.60;99.90;;;;;;5105478;28;20412;-80
2023/08/09 05:05:09;;;;;;;4.47;1.95;;;11.60;99.90;;;;;;5121571;28;20071;-80
2023/08/09 05:07:36;;;;;;;10.15;2.20;;;11.60;99.90;;;;;;5096921;28;20079;-78
2023/08/09 05:10:03;;;;;;;6.45;2.00;;;11.60;99.90;;;;;;5098961;28;20036;-78
2023/08/09 05:12:28;;;;;;;3.55;1.98;;;11.70;99.90;;;;;;5096902;28;20083;-77
2023/08/09 05:14:54;;;;;;;7.97;1.98;;;11.80;99.90;;;;;;5098246;28;20490;-78
2023/08/09 05:17:20;;;;;;;3.80;1.80;;;12.00;99.90;;;;;;5102571;28;20409;-78
2023/08/09 05:19:46;;;;;;;6.10;2.33;;;11.90;99.90;;;;;;5115846;28;20036;-78
2023/08/09 05:22:11;;;;;;;5.95;2.17;;;11.90;99.90;;;;;;5118495;28;20059;-79
2023/08/09 05:24:37;;;;;;;3.53;1.80;;;12.00;99.90;;;;;;5099692;28;20056;-78
2023/08/09 05:27:03;;;;;;;6.38;1.83;;;12.10;99.90;;;;;;5115979;28;20036;-79
2023/08/09 05:29:28;;;;;;;5.80;2.00;;;12.20;99.90;;;;;;5117895;28;20131;-80
2023/08/09 05:31:54;;;;;;;4.15;1.88;;;12.30;99.90;;;;;;5113968;28;20055;-79
2023/08/09 05:34:20;;;;;;;8.43;2.50;;;12.30;99.90;;;;;;5114413;28;20504;-79
2023/08/09 05:36:45;;;;;;;10.77;2.47;;;12.40;99.90;;;;;;5115336;28;20062;-79
2023/08/09 05:39:12;;;;;;;9.60;2.65;;;12.50;99.90;;;;;;5114871;28;20083;-80
2023/08/09 05:41:38;;;;;;;10.13;2.03;;;12.70;99.90;;;;;;5108166;28;20058;-78
2023/08/09 05:44:04;;;;;;;3.67;1.85;;;12.80;99.90;;;;;;5094657;28;20086;-78
2023/08/09 05:46:31;;;;;;;8.90;2.08;;;13.10;99.90;;;;;;5105720;28;20393;-79
2023/08/09 05:48:57;;;;;;;6.25;1.90;;;13.30;99.90;;;;;;5113585;28;20455;-77
2023/08/09 05:51:23;;;;;;;6.38;1.92;;;13.60;99.90;;;;;;5114524;28;20048;-78
2023/08/09 05:53:49;;;;;;;3.25;1.75;;;13.80;99.90;;;;;;5113570;28;20040;-79
2023/08/09 05:56:15;;;;;;;10.88;2.65;;;13.90;99.90;;;;;;5119027;28;20044;-78
2023/08/09 05:58:41;;;;;;;7.20;1.92;;;14.10;99.90;;;;;;5107750;28;20048;-78
2023/08/09 06:01:08;;;;;;;8.55;2.15;;;14.10;99.90;;;;;;5103703;28;20047;-77
2023/08/09 06:03:39;;;;;;;9.68;2.17;;;14.20;99.90;;;;;;5101219;28;20115;-76
2023/08/09 06:06:07;;;;;;;10.88;2.20;;;14.30;99.90;;;;;;5099197;28;20453;-77
2023/08/09 06:08:34;;;;;;;11.57;1.98;;;14.40;99.90;;;;;;5116876;28;20101;-77
2023/08/09 06:11:00;;;;;;;11.43;1.63;;;14.40;99.90;;;;;;5117465;28;20040;-77
2023/08/09 06:13:26;;;;;;;8.07;1.65;;;14.50;99.90;;;;;;5116383;28;20032;-78
2023/08/09 06:15:52;;;;;;;8.73;1.98;;;14.50;99.90;;;;;;5118395;28;20055;-79
2023/08/09 06:18:17;;;;;;;4.65;1.67;;;14.60;99.90;;;;;;5117648;28;20179;-78
2023/08/09 06:20:43;;;;;;;6.47;1.55;;;14.70;99.90;;;;;;5116251;28;20043;-77
2023/08/09 06:23:10;;;;;;;9.52;1.90;;;14.80;99.90;;;;;;5104052;28;20385;-76
2023/08/09 06:25:36;;;;;;;10.05;2.30;;;14.90;99.90;;;;;;5107543;28;20040;-78
2023/08/09 06:28:02;;;;;;;10.68;2.13;;;15.10;99.90;;;;;;5118671;28;20130;-76
2023/08/09 06:30:27;;;;;;;9.13;1.83;;;15.20;99.90;;;;;;5117751;28;20082;-78
2023/08/09 06:32:53;;;;;;;8.43;2.03;;;15.40;99.90;;;;;;5116242;28;20040;-78
2023/08/09 06:35:19;;;;;;;2.92;1.50;;;15.50;99.90;;;;;;5115484;28;20397;-78
2023/08/09 06:37:46;;;;;;;5.97;1.92;;;15.80;99.90;;;;;;5096899;28;20048;-78
2023/08/09 06:40:15;;;;;;;6.30;1.48;;;16.10;99.90;;;;;;5113968;28;20067;-77
2023/08/09 06:42:42;;;;;;;3.30;1.60;;;16.50;99.90;;;;;;5080714;28;20043;-77
2023/08/09 06:45:09;;;;;;;8.52;1.50;;;16.80;99.90;;;;;;5100125;28;20100;-78
2023/08/09 06:47:35;;;;;;;5.78;1.35;;;17.00;99.90;;;;;;5099251;28;20044;-77
2023/08/09 06:50:01;;;;;;;4.68;1.30;;;17.20;99.90;;;;;;5121038;28;20526;-79
2023/08/09 06:52:27;;;;;;;5.90;1.58;;;17.20;99.90;;;;;;5113533;28;20040;-80
2023/08/09 06:54:53;;;;;;;3.15;1.35;;;17.20;99.90;;;;;;5112372;28;20077;-78
2023/08/09 06:57:19;;;;;;;4.53;1.40;;;17.20;99.90;;;;;;5109102;28;20389;-79
2023/08/09 06:59:47;;;;;;;4.55;1.40;;;17.20;99.90;;;;;;5107816;28;20040;-80
2023/08/09 07:02:12;;;;;;;3.97;1.33;;;17.20;99.90;;;;;;5113591;28;20043;-79
2023/08/09 07:04:38;;;;;;;3.63;1.40;;;17.20;99.90;;;;;;5117902;28;20504;-79
2023/08/09 07:07:05;;;;;;;6.47;1.52;;;17.30;99.90;;;;;;5111182;28;20051;-80
2023/08/09 07:09:31;;;;;;;3.97;1.42;;;17.40;99.90;;;;;;5092415;28;20048;-80
2023/08/09 07:11:57;;;;;;;5.50;1.67;;;17.50;99.90;;;;;;5125062;28;20046;-79
2023/08/09 07:14:23;;;;;;;4.28;1.23;;;17.50;99.90;;;;;;5114808;28;20054;-81
2023/08/09 07:16:49;;;;;;;3.33;1.30;;;17.60;99.90;;;;;;5120389;28;20043;-78
2023/08/09 07:19:15;;;;;;;7.80;1.40;;;17.60;99.90;;;;;;5129253;28;20039;-80
2023/08/09 07:21:41;;;;;;;5.82;1.50;;;17.70;99.90;;;;;;5130282;28;20059;-81
2023/08/09 07:24:06;;;;;;;6.15;1.58;;;17.70;99.90;;;;;;5110865;28;20114;-80
2023/08/09 07:26:35;;;;;;;3.33;1.23;;;17.70;99.90;;;;;;5115822;28;20043;-79
2023/08/09 07:29:01;;;;;;;6.68;1.33;;;17.80;99.90;;;;;;5126648;28;20068;-80
2023/08/09 07:31:26;;;;;;;7.82;1.88;;;17.90;99.90;;;;;;5105380;28;20539;-80
2023/08/09 07:33:52;;;;;;;7.60;1.73;;;18.00;99.90;;;;;;5110314;28;20063;-79
2023/08/09 07:36:20;;;;;;;11.50;1.65;;;18.00;99.90;;;;;;5125488;28;20039;-80
2023/08/09 07:38:48;;;;;;;6.43;1.33;;;18.00;99.90;;;;;;5113930;28;20051;-81
2023/08/09 07:41:14;;;;;;;5.35;1.45;;;18.20;99.90;;;;;;5114226;28;20050;-81
2023/08/09 07:43:41;;;;;;;3.63;1.33;;;18.20;99.90;;;;;;5130441;28;20044;-81
2023/08/09 07:46:06;;;;;;;7.55;1.45;;;18.30;99.90;;;;;;5132027;28;20052;-80
2023/08/09 07:48:33;;;;;;;4.85;1.42;;;18.40;99.90;;;;;;5103287;28;20126;-81
2023/08/09 07:50:59;;;;;;;4.15;1.70;;;18.50;99.90;;;;;;5125221;28;20039;-80
2023/08/09 07:53:25;;;;;;;5.25;1.98;;;18.60;99.90;;;;;;5124517;28;20048;-81
2023/08/09 07:55:51;;;;;;;3.88;1.23;;;18.70;99.90;;;;;;5124993;28;20127;-80
2023/08/09 07:58:16;;;;;;;8.30;2.00;;;18.70;99.90;;;;;;5123512;28;20051;-80
2023/08/09 08:00:42;;;;;;;8.45;1.48;;;18.80;99.90;;;;;;5110388;28;20040;-80
2023/08/09 08:03:09;;;;;;;3.53;1.40;;;18.80;99.90;;;;;;5105507;28;20040;-81
2023/08/09 08:05:36;;;;;;;3.72;1.40;;;18.90;99.90;;;;;;5103347;28;20496;-78
2023/08/09 08:08:02;;;;;;;8.10;1.40;;;19.00;99.90;;;;;;5119271;28;20082;-80
2023/08/09 08:10:28;;;;;;;4.85;1.50;;;19.00;99.90;;;;;;5122726;28;20047;-81
2023/08/09 08:12:54;;;;;;;8.13;1.50;;;19.00;99.90;;;;;;5107971;28;20043;-81
2023/08/09 08:15:20;;;;;;;5.57;1.40;;;19.10;99.90;;;;;;5103603;28;20051;-81
2023/08/09 08:17:47;;;;;;;5.88;1.50;;;19.20;99.90;;;;;;5113049;28;20035;-79
2023/08/09 08:20:17;;;;;;;7.40;1.90;;;19.30;99.90;;;;;;5106973;28;20047;-81
2023/08/09 08:22:44;;;;;;;5.82;1.85;;;19.30;99.90;;;;;;5113074;28;20056;-80
2023/08/09 08:25:14;;;;;;;5.78;1.42;;;19.40;99.90;;;;;;5120669;28;20085;-81
2023/08/09 08:27:42;;;;;;;8.13;1.40;;;19.50;99.90;;;;;;5103580;28;20048;-80
2023/08/09 08:30:08;;;;;;;8.10;1.63;;;19.60;99.90;;;;;;5103484;28;20107;-80
2023/08/09 08:32:35;;;;;;;4.75;1.30;;;19.70;99.90;;;;;;5104850;28;20062;-82
2023/08/09 08:35:02;;;;;;;3.92;1.60;;;19.80;99.90;;;;;;5103250;28;20086;-80
2023/08/09 08:37:28;;;;;;;3.92;1.10;;;19.90;99.90;;;;;;5105371;28;20346;-81
2023/08/09 08:39:55;;;;;;;5.53;1.67;;;20.00;99.90;;;;;;5106650;28;20044;-80
2023/08/09 08:42:21;;;;;;;4.25;1.33;;;20.10;99.90;;;;;;5107154;28;20052;-80
2023/08/09 08:44:47;;;;;;;4.22;1.60;;;19.80;99.90;;;;;;5111901;28;20043;-78
2023/08/09 08:47:14;;;;;;;3.55;1.20;;;19.70;99.90;;;;;;5109205;28;20035;-80
2023/08/09 08:49:51;;;;;;;4.25;1.30;;;19.60;99.90;;;;;;5125828;28;20570;-80
2023/08/09 08:52:17;;;;;;;2.90;1.38;;;19.40;99.90;;;;;;5107545;28;20393;-79
2023/08/09 08:54:43;;;;;;;4.22;1.23;;;19.40;99.90;;;;;;5108624;28;20087;-82
2023/08/09 08:57:08;;;;;;;3.45;1.23;;;19.60;99.90;;;;;;5111070;28;20040;-81
2023/08/09 08:59:34;;;;;;;4.82;1.50;;;19.70;99.90;;;;;;5126719;28;20066;-79
2023/08/09 09:02:02;;;;;;;5.10;1.42;;;19.90;99.90;;;;;;5109390;28;20036;-79
2023/08/09 09:04:28;;;;;;;2.67;1.20;;;20.00;99.90;;;;;;5124443;28;20040;-80
2023/08/09 09:06:54;;;;;;;3.53;1.30;;;20.10;99.90;;;;;;5105549;28;20044;-80
2023/08/09 09:09:20;;;;;;;4.43;1.00;;;20.00;99.90;;;;;;5100001;28;20043;-79
2023/08/09 09:11:46;;;;;;;4.07;1.50;;;20.00;99.90;;;;;;5116448;28;20048;-79
2023/08/09 09:14:13;;;;;;;5.85;1.10;;;20.10;99.90;;;;;;5117714;28;20134;-79
2023/08/09 09:16:42;;;;;;;2.42;1.23;;;20.00;99.90;;;;;;5122167;28;20040;-80
2023/08/09 09:19:09;;;;;;;4.60;1.38;;;20.00;99.90;;;;;;5120226;28;20036;-79
2023/08/09 09:21:36;;;;;;;5.47;1.50;;;20.00;99.90;;;;;;5115014;27;20100;-80
2023/08/09 09:24:08;;;;;;;4.78;1.75;;;20.20;99.60;;;;;;5098644;28;20051;-80
2023/08/09 09:26:37;;;;;;;5.28;1.55;;;20.20;99.70;;;;;;5083254;28;20040;-80
2023/08/09 09:29:09;;;;;;;3.53;1.40;;;20.10;99.90;;;;;;5120940;28;20027;-79
2023/08/09 09:31:39;;;;;;;7.82;1.90;;;20.00;99.60;;;;;;5110700;28;20082;-79
2023/08/09 09:34:09;;;;;;;6.70;1.38;;;19.80;99.80;;;;;;5110448;28;20540;-79
2023/08/09 09:36:50;;;;;;;6.40;1.50;;;19.70;99.90;;;;;;5121165;28;20393;-80
2023/08/09 09:39:15;;;;;;;8.50;1.83;;;19.40;99.90;;;;;;5115543;28;20036;-78
2023/08/09 09:41:49;;;;;;;6.25;1.67;;;19.30;99.90;;;;;;5117700;28;20035;-77
2023/08/09 09:44:21;;;;;;;3.80;1.27;;;19.50;99.90;;;;;;5111713;28;20036;-79
2023/08/09 09:46:53;;;;;;;3.80;1.48;;;19.70;99.90;;;;;;5123181;28;20557;-79
2023/08/09 09:49:20;;;;;;;2.65;1.40;;;20.00;99.90;;;;;;5123529;28;20043;-79
2023/08/09 09:51:47;;;;;;;15.35;1.65;;;20.00;99.90;;;;;;5121805;28;20050;-79
2023/08/09 09:54:16;;;;;;;5.50;1.40;;;19.90;99.90;;;;;;5121637;28;20040;-79
2023/08/09 09:56:42;;;;;;;6.35;1.40;;;19.80;99.90;;;;;;5119682;28;20145;-80
2023/08/09 09:59:07;;;;;;;4.05;1.50;;;19.60;99.90;;;;;;5115785;28;20036;-78
2023/08/09 10:01:39;;;;;;;5.90;1.40;;;19.50;99.90;;;;;;5115365;28;20075;-80
2023/08/09 10:04:06;;;;;;;4.50;1.30;;;19.40;99.90;;;;;;5112822;28;20043;-81
2023/08/09 10:06:35;;;;;;;4.78;1.48;;;19.50;99.90;;;;;;5113955;28;20036;-79
2023/08/09 10:09:03;;;;;;;2.92;1.13;;;19.90;99.20;;;;;;5118005;28;20039;-80
2023/08/09 10:11:31;;;;;;;3.05;1.33;;;20.00;99.20;;;;;;5114326;28;20040;-81
2023/08/09 10:14:02;;;;;;;2.25;1.40;;;20.20;99.90;;;;;;5117616;28;20042;-82
2023/08/09 10:16:29;;;;;;;4.07;1.35;;;20.50;99.50;;;;;;5095594;28;20055;-81
2023/08/09 10:19:02;;;;;;;3.42;1.58;;;20.90;99.10;;;;;;5098273;28;20170;-79
2023/08/09 10:21:28;;;;;;;3.13;1.30;;;21.10;99.10;;;;;;5098064;28;20048;-79
2023/08/09 10:24:06;;;;;;;3.05;1.48;;;21.20;98.80;;;;;;5105567;28;20043;-79
2023/08/09 10:26:33;;;;;;;4.85;1.50;;;21.30;98.90;;;;;;5098661;28;20056;-81
2023/08/09 10:29:07;;;;;;;2.30;1.27;;;21.40;97.60;;;;;;5086781;28;20094;-78
2023/08/09 10:31:53;;;;;;;2.22;1.20;;;21.30;96.90;;;;;;5119539;28;20097;-80
2023/08/09 10:34:31;;;;;;;4.40;1.73;;;21.10;97.70;;;;;;5112774;28;20054;-79
2023/08/09 10:36:58;;;;;;;;;;;20.90;98.00;;;;;;5119584;28;20046;-79
2023/08/09 10:39:24;;;;;;;6.13;1.33;;;20.70;97.60;;;;;;5110427;28;19927;-79
2023/08/09 10:41:58;;;;;;;6.50;1.77;;;20.60;97.60;;;;;;5097173;28;20048;-79
2023/08/09 10:44:48;;;;;;;2.90;1.00;;;20.60;96.10;;;;;;5120331;28;20039;-81
2023/08/09 10:47:18;;;;;;;3.72;1.40;;;20.50;97.20;;;;;;5112923;28;20052;-78
2023/08/09 10:49:44;;;;;;;5.25;1.55;;;20.90;97.40;;;;;;5102600;28;20102;-79
2023/08/09 10:52:22;;;;;;;5.97;1.50;;;21.00;95.60;;;;;;5105578;28;20066;-78
2023/08/09 10:55:24;;;;;;;4.20;1.63;;;20.90;96.50;;;;;;5117658;28;20050;-78
2023/08/09 10:57:51;;;;;;;5.35;2.00;;;20.70;96.10;;;;;;5119008;28;20460;-78
2023/08/09 11:00:18;;;;;;;7.13;1.90;;;20.60;95.50;;;;;;5103359;28;20048;-79
2023/08/09 11:02:46;;;;;;;5.85;1.60;;;20.50;96.70;;;;;;5101478;28;20084;-81
2023/08/09 11:05:12;;;;;;;3.20;1.33;;;20.40;95.70;;;;;;5102998;28;20062;-80
2023/08/09 11:07:49;;;;;;;3.40;1.40;;;20.60;95.40;;;;;;5112673;28;20043;-79
2023/08/09 11:10:15;;;;;;;5.35;1.50;;;20.50;95.60;;;;;;5121134;28;20043;-78
2023/08/09 11:12:43;;;;;;;2.33;1.30;;;20.60;96.10;;;;;;5113661;28;20473;-82
2023/08/09 11:15:09;;;;;;;;;;;20.90;96.00;;;;;;5112087;28;20048;-80
2023/08/09 11:17:37;;;;;;;2.53;1.10;;;21.30;96.00;;;;;;5120621;28;19920;-82
2023/08/09 11:20:13;;;;;;;6.40;1.38;;;21.50;94.70;;;;;;5119066;28;20043;-80
2023/08/09 11:22:44;;;;;;;3.13;1.30;;;21.70;94.50;;;;;;5105169;28;20392;-80
2023/08/09 11:25:09;;;;;;;3.45;1.27;;;21.90;93.70;;;;;;5112103;28;20043;-78
2023/08/09 11:27:39;;;;;;;3.00;1.25;;;22.20;94.50;;;;;;5124021;28;20042;-79
2023/08/09 11:30:08;;;;;;;9.07;1.80;;;22.20;93.30;;;;;;5097314;28;20036;-80
2023/08/09 11:32:34;;;;;;;2.88;1.23;;;22.10;94.20;;;;;;5105095;28;20036;-80
2023/08/09 11:35:00;;;;;;;4.82;1.55;;;21.90;93.20;;;;;;5107684;28;20036;-79
2023/08/09 11:37:27;;;;;;;4.47;1.30;;;21.60;92.30;;;;;;5122533;28;20119;-78
2023/08/09 11:39:53;;;;;;;2.92;1.20;;;21.70;92.90;;;;;;5104628;28;20044;-79
2023/08/09 11:42:19;;;;;;;4.97;1.65;;;21.60;92.70;;;;;;5108048;28;20036;-80
2023/08/09 11:44:44;;;;;;;5.97;1.52;;;21.50;93.70;;;;;;5107089;28;20047;-79
2023/08/09 11:47:10;;;;;;;3.78;1.50;;;21.20;93.20;;;;;;5120125;28;20171;-80
2023/08/09 11:49:36;;;;;;;6.47;1.58;;;21.10;93.00;;;;;;5119915;28;20047;-78
2023/08/09 11:52:02;;;;;;;7.38;1.55;;;20.90;94.10;;;;;;5121105;28;20058;-79
2023/08/09 11:54:31;;;;;;;6.40;1.30;;;20.70;94.80;;;;;;5123756;28;20028;-79
2023/08/09 11:56:58;;;;;;;3.35;1.40;;;20.60;95.30;;;;;;5124367;28;20441;-79
2023/08/09 11:59:25;;;;;;;4.00;1.50;;;20.50;95.80;;;;;;5122216;28;20040;-80
2023/08/09 12:01:53;;;;;;;7.05;2.30;;;20.30;96.40;;;;;;5110467;28;20044;-79
2023/08/09 12:04:23;;;;;;;5.00;1.75;;;20.10;96.60;;;;;;5102926;28;20573;-78
2023/08/09 12:06:54;;;;;;;2.35;1.45;;;20.00;96.40;;;;;;5101578;28;20040;-80
2023/08/09 12:09:42;;;;;;;2.45;1.33;;;19.90;97.30;;;;;;5098242;28;20036;-79
2023/08/09 12:12:18;;;;;;;2.67;1.40;;;19.90;96.40;;;;;;5098634;28;20044;-79
2023/08/09 12:14:46;;;;;;;7.55;1.30;;;19.70;97.10;;;;;;5102183;28;20446;-79
2023/08/09 12:17:23;;;;;;;5.10;1.27;;;19.70;97.10;;;;;;5117915;28;20119;-78
2023/08/09 12:19:51;;;;;;;5.25;1.50;;;19.70;97.40;;;;;;5120013;28;20044;-79
2023/08/09 12:22:17;;;;;;;;;;;19.70;97.50;;;;;;5112493;28;20463;-80
2023/08/09 12:24:42;;;;;;;2.92;1.10;;;19.80;97.80;;;;;;5101302;28;19959;-80
2023/08/09 12:27:08;;;;;;;3.22;1.30;;;19.90;96.80;;;;;;5118350;28;20048;-81
2023/08/09 12:29:35;;;;;;;4.35;1.30;;;20.00;96.50;;;;;;5117660;28;20028;-79
2023/08/09 12:32:01;;;;;;;4.47;1.20;;;19.90;97.00;;;;;;5098977;28;20044;-79
2023/08/09 12:34:28;;;;;;;3.20;1.55;;;19.90;97.40;;;;;;5098087;28;20050;-78
2023/08/09 12:36:54;;;;;;;4.03;1.38;;;20.00;97.60;;;;;;5101296;28;20383;-80
2023/08/09 12:39:20;;;;;;;6.13;1.45;;;20.00;97.90;;;;;;5098739;28;20123;-79
2023/08/09 12:41:46;;;;;;;4.90;1.83;;;20.00;97.90;;;;;;5098725;28;20071;-79
2023/08/09 12:44:11;;;;;;;4.82;1.40;;;20.00;97.70;;;;;;5121720;28;20040;-80
2023/08/09 12:46:39;;;;;;;4.78;1.50;;;19.90;97.90;;;;;;5131142;28;20051;-81
2023/08/09 12:49:06;;;;;;;4.43;1.63;;;19.90;98.60;;;;;;5107747;28;20043;-79